createdAt,value
2019-01-06T00:00:15.548Z,7.22
2019-01-06T00:01:15.555Z,7.19
2019-01-06T00:02:15.572Z,7.32
2019-01-06T00:03:15.581Z,7.31
2019-01-06T00:04:15.597Z,7.16
2019-01-06T00:05:15.605Z,7.19
2019-01-06T00:06:15.620Z,7.20
2019-01-06T00:07:15.628Z,7.19
2019-01-06T00:08:15.641Z,7.09
2019-01-06T00:09:15.658Z,7.16
2019-01-06T00:10:15.669Z,7.13
2019-01-06T00:11:15.678Z,7.16
2019-01-06T00:12:15.694Z,7.15
2019-01-06T00:13:15.703Z,7.16
2019-01-06T00:14:15.721Z,7.13
2019-01-06T00:15:15.731Z,7.15
2019-01-06T00:16:15.741Z,7.13
2019-01-06T00:17:15.764Z,7.16
2019-01-06T00:18:15.768Z,7.19
2019-01-06T00:19:15.782Z,7.26
2019-01-06T00:20:15.794Z,7.20
2019-01-06T00:21:15.810Z,7.15
2019-01-06T00:22:15.818Z,7.15
2019-01-06T00:23:15.832Z,7.17
2019-01-06T00:24:15.840Z,7.23
2019-01-06T00:25:15.852Z,7.24
2019-01-06T00:26:15.869Z,7.24
2019-01-06T00:27:15.877Z,7.17
2019-01-06T00:28:15.894Z,7.19
2019-01-06T00:29:15.902Z,7.19
2019-01-06T00:30:15.915Z,7.17
2019-01-06T00:31:15.942Z,7.08
2019-01-06T00:32:15.942Z,7.13
2019-01-06T00:33:15.961Z,7.12
2019-01-06T00:34:15.973Z,7.09
2019-01-06T00:35:15.981Z,7.09
2019-01-06T00:36:15.994Z,7.07
2019-01-06T00:37:16.006Z,7.09
2019-01-06T00:38:16.017Z,7.12
2019-01-06T00:39:16.032Z,7.12
2019-01-06T00:40:16.040Z,7.17
2019-01-06T00:41:16.055Z,7.22
2019-01-06T00:42:16.068Z,7.09
2019-01-06T00:43:16.081Z,7.08
2019-01-06T00:44:16.095Z,7.08
2019-01-06T00:45:16.104Z,7.13
2019-01-06T00:46:16.116Z,7.15
2019-01-06T00:47:16.133Z,7.17
2019-01-06T00:48:16.144Z,7.12
2019-01-06T00:49:16.153Z,7.15
2019-01-06T00:50:16.170Z,7.08
2019-01-06T00:51:16.184Z,7.15
2019-01-06T00:52:16.205Z,7.12
2019-01-06T00:53:16.210Z,7.13
2019-01-06T00:54:16.220Z,7.07
2019-01-06T00:55:16.232Z,7.04
2019-01-06T00:56:16.331Z,7.09
2019-01-06T00:57:16.274Z,7.13
2019-01-06T00:58:16.271Z,7.12
2019-01-06T00:59:16.284Z,7.09
2019-01-06T01:00:16.297Z,7.12
2019-01-06T01:01:16.306Z,7.15
2019-01-06T01:02:16.318Z,7.13
2019-01-06T01:03:16.329Z,7.08
2019-01-06T01:04:16.352Z,7.04
2019-01-06T01:05:16.358Z,7.01
2019-01-06T01:06:16.370Z,6.99
2019-01-06T01:07:16.378Z,7.08
2019-01-06T01:08:16.394Z,7.01
2019-01-06T01:09:16.404Z,6.90
2019-01-06T01:10:16.421Z,6.91
2019-01-06T01:11:16.431Z,6.90
2019-01-06T01:12:16.441Z,6.79
2019-01-06T01:13:16.459Z,6.83
2019-01-06T01:14:16.470Z,6.87
2019-01-06T01:15:16.486Z,6.83
2019-01-06T01:16:16.494Z,6.83
2019-01-06T01:17:16.503Z,6.79
2019-01-06T01:18:16.518Z,6.86
2019-01-06T01:19:16.535Z,6.73
2019-01-06T01:20:16.546Z,6.79
2019-01-06T01:21:16.554Z,6.80
2019-01-06T01:22:16.567Z,6.83
2019-01-06T01:23:16.586Z,6.87
2019-01-06T01:24:16.597Z,6.84
2019-01-06T01:25:16.609Z,6.80
2019-01-06T01:26:16.624Z,6.81
2019-01-06T01:27:16.630Z,6.81
2019-01-06T01:28:16.641Z,6.80
2019-01-06T01:29:16.652Z,6.68
2019-01-06T01:30:16.673Z,6.76
2019-01-06T01:31:16.681Z,6.83
2019-01-06T01:32:16.690Z,6.86
2019-01-06T01:33:16.702Z,6.76
2019-01-06T01:34:16.720Z,6.73
2019-01-06T01:35:16.731Z,6.79
2019-01-06T01:36:16.740Z,6.79
2019-01-06T01:37:16.758Z,6.77
2019-01-06T01:38:16.764Z,6.80
2019-01-06T01:39:16.777Z,6.80
2019-01-06T01:40:16.795Z,6.73
2019-01-06T01:41:16.812Z,6.68
2019-01-06T01:42:16.818Z,6.76
2019-01-06T01:43:16.868Z,6.68
2019-01-06T01:44:16.848Z,6.69
2019-01-06T01:45:16.853Z,6.65
2019-01-06T01:46:16.869Z,6.71
2019-01-06T01:47:16.877Z,6.76
2019-01-06T01:48:16.889Z,6.80
2019-01-06T01:49:16.898Z,6.76
2019-01-06T01:50:16.913Z,6.79
2019-01-06T01:51:16.929Z,6.73
2019-01-06T01:52:16.946Z,6.68
2019-01-06T01:53:16.948Z,6.63
2019-01-06T01:54:16.962Z,6.72
2019-01-06T01:55:16.983Z,6.68
2019-01-06T01:56:16.984Z,6.71
2019-01-06T01:57:16.998Z,6.63
2019-01-06T01:58:17.013Z,6.79
2019-01-06T01:59:17.046Z,6.66
2019-01-06T02:00:17.039Z,6.66
2019-01-06T02:01:17.055Z,6.71
2019-01-06T02:02:17.059Z,6.68
2019-01-06T02:03:17.075Z,6.69
2019-01-06T02:04:17.087Z,6.65
2019-01-06T02:05:17.100Z,6.62
2019-01-06T02:06:17.116Z,6.63
2019-01-06T02:07:17.124Z,6.66
2019-01-06T02:08:17.132Z,6.65
2019-01-06T02:09:17.146Z,6.65
2019-01-06T02:10:17.184Z,6.65
2019-01-06T02:11:17.175Z,6.76
2019-01-06T02:12:17.180Z,6.79
2019-01-06T02:13:17.195Z,6.77
2019-01-06T02:14:17.206Z,6.71
2019-01-06T02:15:17.221Z,6.71
2019-01-06T02:16:17.238Z,6.72
2019-01-06T02:17:17.246Z,6.71
2019-01-06T02:18:17.259Z,6.63
2019-01-06T02:19:17.271Z,6.76
2019-01-06T02:20:17.292Z,6.81
2019-01-06T02:21:17.294Z,6.76
2019-01-06T02:22:17.304Z,6.77
2019-01-06T02:23:17.321Z,6.79
2019-01-06T02:24:17.332Z,6.73
2019-01-06T02:25:17.353Z,6.79
2019-01-06T02:26:17.353Z,6.79
2019-01-06T02:27:17.375Z,6.73
2019-01-06T02:28:17.386Z,6.77
2019-01-06T02:29:17.393Z,6.72
2019-01-06T02:30:17.404Z,6.71
2019-01-06T02:31:17.419Z,6.73
2019-01-06T02:32:17.428Z,6.77
2019-01-06T02:33:17.446Z,6.69
2019-01-06T02:34:17.451Z,6.80
2019-01-06T02:35:17.466Z,6.69
2019-01-06T02:36:17.481Z,6.68
2019-01-06T02:37:17.490Z,6.72
2019-01-06T02:38:17.504Z,6.79
2019-01-06T02:39:17.531Z,6.81
2019-01-06T02:40:17.528Z,6.71
2019-01-06T02:41:17.539Z,6.68
2019-01-06T02:42:17.560Z,6.65
2019-01-06T02:43:17.573Z,6.77
2019-01-06T02:44:17.576Z,6.62
2019-01-06T02:45:17.588Z,6.76
2019-01-06T02:46:17.599Z,6.83
2019-01-06T02:47:17.629Z,6.66
2019-01-06T02:48:17.634Z,6.69
2019-01-06T02:49:17.644Z,6.73
2019-01-06T02:50:17.661Z,6.72
2019-01-06T02:51:17.660Z,6.69
2019-01-06T02:52:17.676Z,6.76
2019-01-06T02:53:17.684Z,6.68
2019-01-06T02:54:17.703Z,6.69
2019-01-06T02:55:17.725Z,6.69
2019-01-06T02:56:17.722Z,6.68
2019-01-06T02:57:17.736Z,6.76
2019-01-06T02:58:17.748Z,6.79
2019-01-06T02:59:17.760Z,6.79
2019-01-06T03:00:17.774Z,6.65
2019-01-06T03:01:17.784Z,6.76
2019-01-06T03:02:17.801Z,6.80
2019-01-06T03:03:17.812Z,6.66
2019-01-06T03:04:17.817Z,6.65
2019-01-06T03:05:17.834Z,6.68
2019-01-06T03:06:17.844Z,6.59
2019-01-06T03:07:17.865Z,6.69
2019-01-06T03:08:17.879Z,6.68
2019-01-06T03:09:17.885Z,6.68
2019-01-06T03:38:44.967Z,6.58
2019-01-06T03:39:44.941Z,6.59
2019-01-06T03:41:36.858Z,6.56
2019-01-06T03:42:36.860Z,6.62
2019-01-06T03:44:28.802Z,6.54
2019-01-06T03:45:28.793Z,6.59
2019-01-06T03:47:20.687Z,6.61
2019-01-06T03:48:20.685Z,6.63
2019-01-06T03:50:12.606Z,6.59
2019-01-06T03:51:12.592Z,6.61
2019-01-06T03:53:04.509Z,6.63
2019-01-06T03:54:04.497Z,6.61
2019-01-06T03:55:56.414Z,6.48
2019-01-06T03:56:56.411Z,6.56
2019-01-06T03:58:48.307Z,6.56
2019-01-06T03:59:48.315Z,6.65
2019-01-06T04:01:40.237Z,6.62
2019-01-06T04:02:40.223Z,6.63
2019-01-06T04:04:32.147Z,6.59
2019-01-06T04:05:32.137Z,6.61
2019-01-06T04:07:24.045Z,6.61
2019-01-06T04:08:24.046Z,6.72
2019-01-06T04:10:15.975Z,6.58
2019-01-06T04:11:15.956Z,6.68
2019-01-06T04:13:07.869Z,6.62
2019-01-06T04:14:07.863Z,6.54
2019-01-06T04:15:59.786Z,6.63
2019-01-06T04:16:59.771Z,6.58
2019-01-06T04:18:51.681Z,6.66
2019-01-06T04:19:51.681Z,6.73
2019-01-06T04:21:43.608Z,6.68
2019-01-06T04:22:43.621Z,6.62
2019-01-06T04:24:35.498Z,6.77
2019-01-06T04:25:35.498Z,6.71
2019-01-06T04:27:27.428Z,6.73
2019-01-06T04:28:27.409Z,6.63
2019-01-06T04:30:19.332Z,6.66
2019-01-06T04:31:19.320Z,6.54
2019-01-06T04:33:12.744Z,6.68
2019-01-06T04:34:12.743Z,6.69
2019-01-06T04:36:04.652Z,6.77
2019-01-06T04:37:04.633Z,6.68
2019-01-06T04:38:56.558Z,6.71
2019-01-06T04:39:56.571Z,6.69
2019-01-06T04:41:48.503Z,6.69
2019-01-06T04:42:48.474Z,6.63
2019-01-06T04:44:40.383Z,6.73
2019-01-06T04:45:40.387Z,6.69
2019-01-06T04:47:32.314Z,6.69
2019-01-06T04:48:32.293Z,6.66
2019-01-06T04:50:24.706Z,6.80
2019-01-06T04:51:24.713Z,6.71
2019-01-06T04:53:16.640Z,6.77
2019-01-06T04:54:16.624Z,6.71
2019-01-06T04:56:08.534Z,6.68
2019-01-06T04:57:08.535Z,6.79
2019-01-06T04:59:00.455Z,6.77
2019-01-06T05:00:00.441Z,6.73
2019-01-06T05:01:52.365Z,6.73
2019-01-06T05:02:52.368Z,6.76
2019-01-06T05:04:44.302Z,6.79
2019-01-06T05:05:44.287Z,6.71
2019-01-06T05:07:36.212Z,6.76
2019-01-06T05:08:36.212Z,6.68
2019-01-06T05:10:28.148Z,6.65
2019-01-06T05:11:28.123Z,6.68
2019-01-06T05:13:20.558Z,6.83
2019-01-06T05:14:20.538Z,6.63
2019-01-06T05:16:12.458Z,6.66
2019-01-06T05:17:12.455Z,6.68
2019-01-06T05:19:04.418Z,6.69
2019-01-06T05:20:04.370Z,6.65
2019-01-06T05:21:56.272Z,6.65
2019-01-06T05:22:56.276Z,6.66
2019-01-06T05:24:48.208Z,6.69
2019-01-06T05:25:48.192Z,6.65
2019-01-06T05:27:40.105Z,6.80
2019-01-06T05:28:40.106Z,6.72
2019-01-06T05:30:32.028Z,6.77
2019-01-06T05:31:32.014Z,6.86
2019-01-06T05:33:23.925Z,6.89
2019-01-06T05:34:23.921Z,6.87
2019-01-06T05:36:15.844Z,6.77
2019-01-06T05:37:15.836Z,6.77
2019-01-06T05:39:07.752Z,6.86
2019-01-06T05:40:07.765Z,6.80
2019-01-06T05:41:59.702Z,6.77
2019-01-06T05:42:59.667Z,6.71
2019-01-06T05:44:51.587Z,6.80
2019-01-06T05:45:51.587Z,6.79
2019-01-06T05:47:43.516Z,6.73
2019-01-06T05:48:43.494Z,6.80
2019-01-06T05:50:35.447Z,6.71
2019-01-06T05:51:35.424Z,6.68
2019-01-06T05:53:27.324Z,6.66
2019-01-06T05:54:27.328Z,6.71
2019-01-06T05:56:19.256Z,6.79
2019-01-06T05:57:19.235Z,6.81
2019-01-06T05:59:11.164Z,6.77
2019-01-06T06:00:11.164Z,6.79
2019-01-06T06:02:03.175Z,6.68
2019-01-06T06:03:03.092Z,6.65
2019-01-06T06:04:55.489Z,6.77
2019-01-06T06:05:55.494Z,6.73
2019-01-06T06:07:47.421Z,6.77
2019-01-06T06:08:47.403Z,6.63
2019-01-06T06:10:39.311Z,6.81
2019-01-06T06:11:39.312Z,6.80
2019-01-06T06:13:31.247Z,6.72
2019-01-06T06:14:31.228Z,6.69
2019-01-06T06:16:23.640Z,6.73
2019-01-06T06:17:23.647Z,6.69
2019-01-06T06:19:15.566Z,6.69
2019-01-06T06:20:15.563Z,6.65
2019-01-06T06:22:07.492Z,6.66
2019-01-06T06:23:07.476Z,6.71
2019-01-06T06:24:59.382Z,6.56
2019-01-06T06:25:59.387Z,6.61
2019-01-06T06:27:51.310Z,6.71
2019-01-06T06:28:51.294Z,6.56
2019-01-06T06:30:43.208Z,6.68
2019-01-06T06:31:43.206Z,6.69
2019-01-06T06:33:35.146Z,6.61
2019-01-06T06:34:35.121Z,6.58
2019-01-06T06:36:27.030Z,6.56
2019-01-06T06:37:27.032Z,6.62
2019-01-06T06:39:19.452Z,6.66
2019-01-06T06:40:19.451Z,6.54
2019-01-06T06:42:11.349Z,6.68
2019-01-06T06:43:11.352Z,6.63
2019-01-06T06:45:03.285Z,6.58
2019-01-06T06:46:03.278Z,6.58
2019-01-06T06:47:55.229Z,6.56
2019-01-06T06:48:55.202Z,6.68
2019-01-06T06:50:47.111Z,6.54
2019-01-06T06:51:47.118Z,6.68
2019-01-06T06:53:39.045Z,6.62
2019-01-06T06:54:39.024Z,6.59
2019-01-06T06:56:30.937Z,6.56
2019-01-06T06:57:30.946Z,6.66
2019-01-06T06:58:30.952Z,6.65
2019-01-06T06:59:30.988Z,6.54
2019-01-06T07:00:30.982Z,6.66
2019-01-06T07:01:30.988Z,6.65
2019-01-06T07:02:31.014Z,6.59
2019-01-06T07:03:31.012Z,6.59
2019-01-06T07:04:31.026Z,6.44
2019-01-06T07:05:31.045Z,6.50
2019-01-06T07:06:31.051Z,6.47
2019-01-06T07:07:31.070Z,6.53
2019-01-06T07:08:31.078Z,6.44
2019-01-06T07:09:31.086Z,6.56
2019-01-06T07:10:31.104Z,6.58
2019-01-06T07:11:31.119Z,6.56
2019-01-06T07:12:31.131Z,6.56
2019-01-06T07:13:31.158Z,6.63
2019-01-06T07:14:31.154Z,6.59
2019-01-06T07:15:31.169Z,6.62
2019-01-06T07:16:31.179Z,6.63
2019-01-06T07:17:31.188Z,6.58
2019-01-06T07:18:31.201Z,6.68
2019-01-06T07:19:31.216Z,6.59
2019-01-06T07:20:31.229Z,6.66
2019-01-06T07:21:31.240Z,6.68
2019-01-06T07:22:31.276Z,6.69
2019-01-06T07:23:31.270Z,6.69
2019-01-06T07:24:31.280Z,6.66
2019-01-06T07:25:31.288Z,6.68
2019-01-06T07:26:31.302Z,6.54
2019-01-06T07:27:31.314Z,6.56
2019-01-06T07:28:31.334Z,6.58
2019-01-06T07:29:31.348Z,6.68
2019-01-06T07:30:31.346Z,6.54
2019-01-06T07:31:31.365Z,6.69
2019-01-06T07:32:31.378Z,6.59
2019-01-06T07:33:31.385Z,6.53
2019-01-06T07:34:31.401Z,6.68
2019-01-06T07:35:31.422Z,6.61
2019-01-06T07:36:31.426Z,6.65
2019-01-06T07:37:31.439Z,6.65
2019-01-06T07:38:31.449Z,6.69
2019-01-06T07:39:31.460Z,6.63
2019-01-06T07:40:31.478Z,6.71
2019-01-06T07:41:31.487Z,6.69
2019-01-06T07:42:31.501Z,6.66
2019-01-06T07:43:31.515Z,6.80
2019-01-06T07:44:31.526Z,6.72
2019-01-06T07:45:31.535Z,6.77
2019-01-06T07:46:31.551Z,6.72
2019-01-06T07:47:31.565Z,6.68
2019-01-06T07:48:31.574Z,6.77
2019-01-06T07:49:31.586Z,6.81
2019-01-06T07:50:31.600Z,6.68
2019-01-06T07:51:31.611Z,6.66
2019-01-06T07:52:31.633Z,6.73
2019-01-06T07:53:31.633Z,6.79
2019-01-06T07:54:31.653Z,6.72
2019-01-06T07:55:31.658Z,6.68
2019-01-06T07:56:31.671Z,6.76
2019-01-06T07:57:31.700Z,6.77
2019-01-06T07:58:31.698Z,6.71
2019-01-06T07:59:31.719Z,6.69
2019-01-06T08:00:31.726Z,6.68
2019-01-06T08:01:31.741Z,6.69
2019-01-06T08:02:31.746Z,6.68
2019-01-06T08:03:31.764Z,6.79
2019-01-06T08:04:31.777Z,6.68
2019-01-06T08:05:31.788Z,6.77
2019-01-06T08:06:31.795Z,6.80
2019-01-06T08:07:31.813Z,6.79
2019-01-06T08:08:31.824Z,6.65
2019-01-06T08:09:31.837Z,6.79
2019-01-06T08:10:31.914Z,6.71
2019-01-06T08:11:31.864Z,6.81
2019-01-06T08:12:31.875Z,6.62
2019-01-06T08:13:31.891Z,6.63
2019-01-06T08:14:31.898Z,6.77
2019-01-06T08:15:31.910Z,6.59
2019-01-06T08:16:31.921Z,6.68
2019-01-06T08:17:31.933Z,6.72
2019-01-06T08:18:31.947Z,6.71
2019-01-06T08:19:31.961Z,6.66
2019-01-06T08:20:32.922Z,6.80
2019-01-06T08:21:31.991Z,6.80
2019-01-06T08:22:31.998Z,6.77
2019-01-06T08:23:32.008Z,6.77
2019-01-06T08:24:32.025Z,6.77
2019-01-06T08:25:32.032Z,6.72
2019-01-06T08:26:32.052Z,6.79
2019-01-06T08:27:32.068Z,6.72
2019-01-06T08:28:32.083Z,6.79
2019-01-06T08:29:32.086Z,6.79
2019-01-06T08:30:32.099Z,6.86
2019-01-06T08:31:32.114Z,6.84
2019-01-06T08:32:32.129Z,6.81
2019-01-06T08:33:32.136Z,6.87
2019-01-06T08:34:32.148Z,6.80
2019-01-06T08:35:32.163Z,6.79
2019-01-06T08:36:32.173Z,6.79
2019-01-06T08:37:32.188Z,6.77
2019-01-06T08:38:32.196Z,6.87
2019-01-06T08:39:32.211Z,6.73
2019-01-06T08:40:32.224Z,6.77
2019-01-06T08:41:32.234Z,6.80
2019-01-06T08:42:32.245Z,6.81
2019-01-06T08:43:32.259Z,6.84
2019-01-06T08:44:32.272Z,6.79
2019-01-06T08:45:34.252Z,6.87
2019-01-06T08:46:32.298Z,6.87
2019-01-06T08:47:32.313Z,6.83
2019-01-06T08:48:32.335Z,6.90
2019-01-06T08:49:32.335Z,6.86
2019-01-06T08:50:32.346Z,6.87
2019-01-06T08:51:32.364Z,6.83
2019-01-06T08:52:32.373Z,6.89
2019-01-06T08:53:32.387Z,6.87
2019-01-06T08:54:32.403Z,6.89
2019-01-06T08:55:32.415Z,6.87
2019-01-06T08:56:32.596Z,6.76
2019-01-06T08:57:32.436Z,6.84
2019-01-06T08:58:32.453Z,6.84
2019-01-06T08:59:32.458Z,6.83
2019-01-06T09:00:32.482Z,6.77
2019-01-06T09:01:32.485Z,6.80
2019-01-06T09:02:32.498Z,6.81
2019-01-06T09:03:32.515Z,6.83
2019-01-06T09:04:32.526Z,6.77
2019-01-06T09:05:32.571Z,6.86
2019-01-06T09:06:32.550Z,6.90
2019-01-06T09:07:32.563Z,6.89
2019-01-06T09:08:32.587Z,6.95
2019-01-06T09:09:32.590Z,6.89
2019-01-06T09:10:32.602Z,6.89
2019-01-06T09:11:32.609Z,6.95
2019-01-06T09:12:32.627Z,6.87
2019-01-06T09:13:32.639Z,6.86
2019-01-06T09:14:32.648Z,6.97
2019-01-06T09:15:32.666Z,6.89
2019-01-06T09:16:32.677Z,6.97
2019-01-06T09:17:32.688Z,6.89
2019-01-06T09:18:32.706Z,6.97
2019-01-06T09:19:32.715Z,6.95
2019-01-06T09:20:32.730Z,7.02
2019-01-06T09:21:32.736Z,7.01
2019-01-06T09:22:32.751Z,6.97
2019-01-06T09:23:32.770Z,7.05
2019-01-06T09:24:32.778Z,6.98
2019-01-06T09:25:40.719Z,7.05
2019-01-06T09:26:32.825Z,7.07
2019-01-06T09:27:32.822Z,6.98
2019-01-06T09:28:32.833Z,7.09
2019-01-06T09:29:32.876Z,7.05
2019-01-06T09:30:32.854Z,7.08
2019-01-06T09:31:32.868Z,7.15
2019-01-06T09:32:32.878Z,7.17
2019-01-06T09:33:32.893Z,7.13
2019-01-06T09:34:32.903Z,7.17
2019-01-06T09:35:32.923Z,7.27
2019-01-06T09:36:32.933Z,7.19
2019-01-06T09:37:32.944Z,7.20
2019-01-06T09:38:32.957Z,7.24
2019-01-06T09:39:32.967Z,7.22
2019-01-06T09:40:32.987Z,7.22
2019-01-06T09:41:32.993Z,7.19
2019-01-06T09:42:33.009Z,7.19
2019-01-06T09:43:33.021Z,7.40
2019-01-06T09:44:33.033Z,7.32
2019-01-06T09:45:33.042Z,7.35
2019-01-06T09:46:33.080Z,7.34
2019-01-06T09:47:33.071Z,7.38
2019-01-06T09:48:33.087Z,7.44
2019-01-06T09:49:33.095Z,7.38
2019-01-06T09:50:33.113Z,7.42
2019-01-06T09:51:33.133Z,7.41
2019-01-06T09:52:33.140Z,7.42
2019-01-06T09:53:33.148Z,7.55
2019-01-06T09:54:33.174Z,7.58
2019-01-06T09:55:33.172Z,7.58
2019-01-06T09:56:33.192Z,7.56
2019-01-06T09:57:33.200Z,7.58
2019-01-06T09:58:33.211Z,7.60
2019-01-06T09:59:33.227Z,7.60
2019-01-06T10:00:33.241Z,7.60
2019-01-06T10:01:33.255Z,7.56
2019-01-06T10:02:33.265Z,7.62
2019-01-06T10:03:33.280Z,7.62
2019-01-06T10:04:35.132Z,7.62
2019-01-06T10:05:33.305Z,7.63
2019-01-06T10:06:33.316Z,7.75
2019-01-06T10:07:33.327Z,7.71
2019-01-06T10:08:33.346Z,7.75
2019-01-06T10:09:33.354Z,7.71
2019-01-06T10:10:33.370Z,7.78
2019-01-06T10:11:33.384Z,7.79
2019-01-06T10:12:33.402Z,7.85
2019-01-06T10:13:33.411Z,7.78
2019-01-06T10:14:33.421Z,7.84
2019-01-06T10:15:33.437Z,7.90
2019-01-06T10:16:33.451Z,7.84
2019-01-06T10:17:33.461Z,8.10
2019-01-06T10:18:33.478Z,8.03
2019-01-06T10:19:33.493Z,7.99
2019-01-06T10:20:33.522Z,8.07
2019-01-06T10:21:33.514Z,8.10
2019-01-06T10:22:33.528Z,8.08
2019-01-06T10:23:33.548Z,7.99
2019-01-06T10:24:33.555Z,8.10
2019-01-06T10:25:33.569Z,8.10
2019-01-06T10:26:33.582Z,8.11
2019-01-06T10:27:33.594Z,8.03
2019-01-06T10:28:33.608Z,8.03
2019-01-06T10:29:33.640Z,8.04
2019-01-06T10:30:33.637Z,8.14
2019-01-06T10:31:33.646Z,8.12
2019-01-06T10:32:33.662Z,8.15
2019-01-06T10:33:33.672Z,8.02
2019-01-06T10:34:33.686Z,8.04
2019-01-06T10:35:33.701Z,8.03
2019-01-06T10:36:33.716Z,8.02
2019-01-06T10:37:33.735Z,8.00
2019-01-06T10:38:33.742Z,8.08
2019-01-06T10:39:34.967Z,8.15
2019-01-06T10:40:33.773Z,8.12
2019-01-06T10:41:33.783Z,8.17
2019-01-06T10:42:33.797Z,8.25
2019-01-06T10:43:33.807Z,8.20
2019-01-06T10:44:33.826Z,8.28
2019-01-06T10:45:33.838Z,8.26
2019-01-06T10:46:33.849Z,8.22
2019-01-06T10:47:33.864Z,8.32
2019-01-06T10:48:33.885Z,8.28
2019-01-06T10:49:33.890Z,8.10
2019-01-06T10:50:33.902Z,8.20
2019-01-06T10:51:33.914Z,8.14
2019-01-06T10:52:33.931Z,8.08
2019-01-06T10:53:33.950Z,8.00
2019-01-06T10:54:33.959Z,8.08
2019-01-06T10:55:33.979Z,7.87
2019-01-06T10:56:33.984Z,7.85
2019-01-06T10:57:34.005Z,7.75
2019-01-06T10:58:34.015Z,7.84
2019-01-06T10:59:34.027Z,7.74
2019-01-06T11:00:34.040Z,7.63
2019-01-06T11:01:34.060Z,7.69
2019-01-06T11:02:34.069Z,7.69
2019-01-06T11:03:34.080Z,7.74
2019-01-06T11:04:34.094Z,7.78
2019-01-06T11:05:34.172Z,7.85
2019-01-06T11:06:34.119Z,7.84
2019-01-06T11:07:34.132Z,7.90
2019-01-06T11:08:34.157Z,7.81
2019-01-06T11:09:34.162Z,7.89
2019-01-06T11:10:34.177Z,7.85
2019-01-06T11:11:34.187Z,7.99
2019-01-06T11:12:34.203Z,8.07
2019-01-06T11:13:34.234Z,7.99
2019-01-06T11:14:34.238Z,7.85
2019-01-06T11:15:34.245Z,7.90
2019-01-06T11:16:34.253Z,7.79
2019-01-06T11:17:34.269Z,7.78
2019-01-06T11:18:34.278Z,7.81
2019-01-06T11:19:34.297Z,7.84
2019-01-06T11:20:34.311Z,7.74
2019-01-06T11:21:34.319Z,7.66
2019-01-06T11:22:34.334Z,7.60
2019-01-06T11:23:34.345Z,7.62
2019-01-06T11:24:34.360Z,7.63
2019-01-06T11:25:34.383Z,7.75
2019-01-06T11:26:34.391Z,7.72
2019-01-06T11:27:34.399Z,7.72
2019-01-06T11:28:34.416Z,7.72
2019-01-06T11:29:34.426Z,7.82
2019-01-06T11:30:34.443Z,7.84
2019-01-06T11:31:34.456Z,7.75
2019-01-06T11:32:34.465Z,7.82
2019-01-06T11:33:34.478Z,7.87
2019-01-06T11:34:34.494Z,7.87
2019-01-06T11:35:34.506Z,7.90
2019-01-06T11:36:34.527Z,7.81
2019-01-06T11:37:34.532Z,7.87
2019-01-06T11:38:34.545Z,7.84
2019-01-06T11:39:34.558Z,8.03
2019-01-06T11:40:34.573Z,8.10
2019-01-06T11:41:34.586Z,8.14
2019-01-06T11:42:34.601Z,8.04
2019-01-06T11:43:34.611Z,8.07
2019-01-06T11:44:34.626Z,8.10
2019-01-06T11:45:34.640Z,8.04
2019-01-06T11:46:34.654Z,8.08
2019-01-06T11:47:34.666Z,8.18
2019-01-06T11:48:34.681Z,8.12
2019-01-06T11:49:34.690Z,8.20
2019-01-06T11:50:34.705Z,8.28
2019-01-06T11:51:34.722Z,8.25
2019-01-06T11:52:34.729Z,8.18
2019-01-06T11:53:34.745Z,8.12
2019-01-06T11:54:34.757Z,8.17
2019-01-06T11:55:34.782Z,8.25
2019-01-06T11:56:34.783Z,8.25
2019-01-06T11:57:34.801Z,8.25
2019-01-06T11:58:34.814Z,8.21
2019-01-06T11:59:34.827Z,8.35
2019-01-06T12:00:34.840Z,8.55
2019-01-06T12:01:34.855Z,8.60
2019-01-06T12:02:39.017Z,8.66
2019-01-06T12:03:34.908Z,8.72
2019-01-06T12:04:34.890Z,8.81
2019-01-06T12:05:34.902Z,8.99
2019-01-06T12:06:34.922Z,8.90
2019-01-06T12:07:34.939Z,8.84
2019-01-06T12:08:40.967Z,8.99
2019-01-06T12:09:34.958Z,9.01
2019-01-06T12:10:34.977Z,9.04
2019-01-06T12:11:34.984Z,9.09
2019-01-06T12:12:34.999Z,9.16
2019-01-06T12:13:35.013Z,9.34
2019-01-06T12:14:35.040Z,9.39
2019-01-06T12:15:35.042Z,9.56
2019-01-06T12:16:35.057Z,9.76
2019-01-06T12:17:35.077Z,9.83
2019-01-06T12:18:35.083Z,9.85
2019-01-06T12:19:35.096Z,9.96
2019-01-06T12:20:35.117Z,9.85
2019-01-06T12:21:35.126Z,9.97
2019-01-06T12:22:35.139Z,9.97
2019-01-06T12:23:35.151Z,10.12
2019-01-06T12:24:35.167Z,10.04
2019-01-06T12:25:35.179Z,10.00
2019-01-06T12:26:35.196Z,9.94
2019-01-06T12:27:35.209Z,9.83
2019-01-06T12:28:35.225Z,9.82
2019-01-06T12:29:35.242Z,9.75
2019-01-06T12:30:35.254Z,9.67
2019-01-06T12:31:35.273Z,9.63
2019-01-06T12:32:35.286Z,9.53
2019-01-06T12:33:35.296Z,9.56
2019-01-06T12:34:35.314Z,9.50
2019-01-06T12:35:35.324Z,9.61
2019-01-06T12:36:35.337Z,9.46
2019-01-06T12:37:35.357Z,9.35
2019-01-06T12:38:35.376Z,9.40
2019-01-06T12:39:35.381Z,9.43
2019-01-06T12:40:35.398Z,9.28
2019-01-06T12:41:35.409Z,9.40
2019-01-06T12:42:35.422Z,9.38
2019-01-06T12:43:35.438Z,9.38
2019-01-06T12:44:35.454Z,9.38
2019-01-06T12:45:35.475Z,9.24
2019-01-06T12:46:35.490Z,9.16
2019-01-06T12:47:35.511Z,9.06
2019-01-06T12:48:35.511Z,9.06
2019-01-06T12:49:35.541Z,9.09
2019-01-06T12:50:35.538Z,9.01
2019-01-06T12:51:43.243Z,9.01
2019-01-06T12:52:35.570Z,9.02
2019-01-06T12:53:40.154Z,9.05
2019-01-06T12:54:35.596Z,8.96
2019-01-06T12:55:35.612Z,8.97
2019-01-06T12:56:35.621Z,8.88
2019-01-06T12:57:35.638Z,8.97
2019-01-06T12:58:35.650Z,8.99
2019-01-06T12:59:35.666Z,9.01
2019-01-06T13:00:35.682Z,9.02
2019-01-06T13:01:35.694Z,9.10
2019-01-06T13:02:35.708Z,9.05
2019-01-06T13:03:35.722Z,9.12
2019-01-06T13:04:35.736Z,9.15
2019-01-06T13:05:35.759Z,9.20
2019-01-06T13:06:35.765Z,9.15
2019-01-06T13:07:35.780Z,9.18
2019-01-06T13:08:35.794Z,9.10
2019-01-06T13:09:35.807Z,9.01
2019-01-06T13:10:35.822Z,9.12
2019-01-06T13:11:35.849Z,9.06
2019-01-06T13:12:35.867Z,9.05
2019-01-06T13:13:37.070Z,9.10
2019-01-06T13:14:35.877Z,8.99
2019-01-06T13:15:35.890Z,9.15
2019-01-06T13:16:35.906Z,9.04
2019-01-06T13:17:35.918Z,9.02
2019-01-06T13:18:35.940Z,9.05
2019-01-06T13:19:35.947Z,9.05
2019-01-06T13:20:35.963Z,9.09
2019-01-06T13:21:35.977Z,9.05
2019-01-06T13:22:35.993Z,9.15
2019-01-06T13:23:36.001Z,9.05
2019-01-06T13:24:36.019Z,9.05
2019-01-06T13:25:36.030Z,9.06
2019-01-06T13:26:36.048Z,9.04
2019-01-06T13:27:36.067Z,8.99
2019-01-06T13:28:36.077Z,8.94
2019-01-06T13:29:36.089Z,8.96
2019-01-06T13:30:36.107Z,8.94
2019-01-06T13:31:36.119Z,8.97
2019-01-06T13:32:36.132Z,8.96
2019-01-06T13:33:36.145Z,8.86
2019-01-06T13:34:36.159Z,8.68
2019-01-06T13:35:36.175Z,8.72
2019-01-06T13:36:36.184Z,8.69
2019-01-06T13:37:36.201Z,8.73
2019-01-06T13:38:36.217Z,8.73
2019-01-06T13:39:36.234Z,8.83
2019-01-06T13:40:36.247Z,8.71
2019-01-06T13:41:36.267Z,8.71
2019-01-06T13:42:36.270Z,8.75
2019-01-06T13:43:36.283Z,8.68
2019-01-06T13:44:36.298Z,8.71
2019-01-06T13:45:36.314Z,8.69
2019-01-06T13:46:36.333Z,8.75
2019-01-06T13:47:36.339Z,8.81
2019-01-06T13:48:36.359Z,8.76
2019-01-06T13:49:36.412Z,8.84
2019-01-06T13:50:36.381Z,8.84
2019-01-06T13:51:36.412Z,8.86
2019-01-06T13:52:36.407Z,8.88
2019-01-06T13:53:36.427Z,8.73
2019-01-06T13:54:36.439Z,8.76
2019-01-06T13:55:36.450Z,8.69
2019-01-06T13:56:36.475Z,8.73
2019-01-06T13:57:36.484Z,8.68
2019-01-06T13:58:36.491Z,8.72
2019-01-06T13:59:36.506Z,8.68
2019-01-06T14:00:36.524Z,8.68
2019-01-06T14:01:36.558Z,8.71
2019-01-06T14:02:36.547Z,8.73
2019-01-06T14:03:36.564Z,8.75
2019-01-06T14:04:36.584Z,8.69
2019-01-06T14:05:36.591Z,8.76
2019-01-06T14:06:36.602Z,8.73
2019-01-06T14:07:36.618Z,8.73
2019-01-06T14:08:36.641Z,8.65
2019-01-06T14:09:36.644Z,8.73
2019-01-06T14:10:36.659Z,8.69
2019-01-06T14:11:36.674Z,8.73
2019-01-06T14:12:36.691Z,8.72
2019-01-06T14:13:36.703Z,8.69
2019-01-06T14:14:36.712Z,8.72
2019-01-06T14:15:36.731Z,8.69
2019-01-06T14:16:36.747Z,8.63
2019-01-06T14:17:36.757Z,8.63
2019-01-06T14:18:36.770Z,8.62
2019-01-06T14:19:36.793Z,8.54
2019-01-06T14:20:36.799Z,8.63
2019-01-06T14:21:36.808Z,8.63
2019-01-06T14:22:36.822Z,8.62
2019-01-06T14:23:36.839Z,8.63
2019-01-06T14:24:36.875Z,8.53
2019-01-06T14:25:36.865Z,8.60
2019-01-06T14:26:36.879Z,8.58
2019-01-06T14:27:36.903Z,8.57
2019-01-06T14:28:36.907Z,8.57
2019-01-06T14:29:36.930Z,8.54
2019-01-06T14:30:36.934Z,8.57
2019-01-06T14:31:36.948Z,8.51
2019-01-06T14:32:36.963Z,8.48
2019-01-06T14:33:36.978Z,8.53
2019-01-06T14:34:36.990Z,8.60
2019-01-06T14:35:37.003Z,8.51
2019-01-06T14:36:37.020Z,8.53
2019-01-06T14:37:37.036Z,8.48
2019-01-06T14:38:37.044Z,8.44
2019-01-06T14:39:37.063Z,8.45
2019-01-06T14:40:37.075Z,8.47
2019-01-06T14:41:37.087Z,8.44
2019-01-06T14:42:37.104Z,8.47
2019-01-06T14:43:37.112Z,8.51
2019-01-06T14:44:37.128Z,8.50
2019-01-06T14:45:37.139Z,8.36
2019-01-06T14:46:37.154Z,8.29